Holland, Nebraska
Current Conditions -  °F | °C
As of 8:54 PM on Friday 19 Dec 2014 (Local Time) from KLNK Reporting Station
Overcast Overcast  
Wind Chill: -3°   Ceiling: 1400
Heat Index:   Visibility: 7mi
Dew Point: -1°   Wind: 10mph
Humidity: 85%   Direction: 170°S
Pressure: 30.13"   Gusts: NA
Location:  40.6166°N, 96.617°W
Report Text: KLNK 200254Z 17009KT 7SM OVC014 01/M01 A3013 RMK AO2 SLP215 T00111011 58005
Loading
Personal Weather Stations






























Interactive Weather Map New forecast layout! Learn more

10-Day Weather Forecast

Advertisements
Track Severe Weather on mobile